Time;durP1;ratioP1;P1;durP2;ratioP2;P2;SDS_P1;SDS_P2;PMS_P1;PMS_P2;Temp;Humidity;BMP_temperature;BMP_pressure;BME280_temperature;BME280_humidity;BME280_pressure;Samples;Min_cycle;Max_cycle;Signal;HPM_P1;HPM_P2
2023/05/22 00:02:52;;;;;;;13.77;5.80;;;;;;;21.27;55.65;100526.84;5004435;28;20041;-81
2023/05/22 00:05:47;;;;;;;8.45;5.72;;;;;;;21.40;55.52;100528.03;4994045;28;20041;-82
2023/05/22 00:08:42;;;;;;;20.98;5.55;;;;;;;21.13;56.78;100533.06;4999825;28;20566;-83
2023/05/22 00:11:36;;;;;;;13.52;5.40;;;;;;;20.93;57.65;100534.59;5009505;28;20037;-80
2023/05/22 00:14:31;;;;;;;9.60;5.05;;;;;;;20.61;58.89;100528.94;5009952;28;20038;-81
2023/05/22 00:17:25;;;;;;;6.03;4.75;;;;;;;20.78;58.38;100536.50;5006200;28;20042;-80
2023/05/22 00:20:20;;;;;;;8.25;4.85;;;;;;;20.72;58.45;100535.31;5011950;28;20052;-81
2023/05/22 00:23:12;;;;;;;6.75;4.72;;;;;;;20.78;58.41;100538.47;5015769;28;20044;-81
2023/05/22 00:26:04;;;;;;;9.30;4.88;;;;;;;20.76;57.77;100532.56;5018533;28;20068;-81
2023/05/22 00:28:59;;;;;;;10.10;6.28;;;;;;;20.62;58.46;100535.28;5008432;28;20080;-84
2023/05/22 00:31:54;;;;;;;9.32;5.25;;;;;;;20.52;59.46;100533.25;4999583;28;20050;-81
2023/05/22 00:34:48;;;;;;;6.35;4.32;;;;;;;20.62;58.34;100527.75;4979267;28;20046;-82
2023/05/22 00:37:43;;;;;;;10.70;4.43;;;;;;;20.73;57.52;100531.34;4998127;28;20524;-83
2023/05/22 00:40:38;;;;;;;7.47;4.93;;;;;;;20.85;56.17;100522.72;4978845;28;20042;-82
2023/05/22 00:43:33;;;;;;;5.93;4.75;;;;;;;20.95;55.90;100532.25;4984949;28;20053;-83
2023/05/22 00:46:27;;;;;;;10.85;3.90;;;;;;;21.07;54.46;100533.88;4996865;28;20068;-80
2023/05/22 00:49:22;;;;;;;6.25;3.72;;;;;;;21.04;54.84;100532.66;5012466;28;20041;-80
2023/05/22 00:52:17;;;;;;;7.38;4.65;;;;;;;21.13;55.04;100527.53;5017951;28;20049;-79
2023/05/22 00:55:07;;;;;;;;;;;;;;;21.16;54.49;100532.34;5012954;28;20692;-78
2023/05/22 00:57:59;;;;;;;7.90;4.50;;;;;;;21.16;53.29;100520.47;4997947;28;19925;-81
2023/05/22 01:00:53;;;;;;;9.07;5.03;;;;;;;21.22;53.88;100530.78;5003811;28;20069;-80
2023/05/22 01:03:46;;;;;;;10.38;4.43;;;;;;;21.23;52.75;100528.81;4998830;28;20052;-79
2023/05/22 01:06:42;;;;;;;8.13;4.40;;;;;;;21.28;53.00;100533.97;5004392;28;20033;-79
2023/05/22 01:09:37;;;;;;;6.05;3.97;;;;;;;21.27;52.36;100524.06;4999809;28;20049;-79
2023/05/22 01:12:39;;;;;;;9.25;4.30;;;;;;;21.26;51.77;100526.03;5010059;28;20408;-80
2023/05/22 01:15:39;;;;;;;10.15;4.43;;;;;;;21.28;52.50;100529.19;5012213;28;20048;-78
2023/05/22 01:18:53;;;;;;;10.00;3.75;;;;;;;21.30;52.68;100526.03;5010738;28;20045;-79
2023/05/22 01:21:59;;;;;;;9.98;3.97;;;;;;;21.29;51.64;100532.75;5002390;28;20045;-79
2023/05/22 01:25:29;;;;;;;6.15;3.55;;;;;;;21.30;52.25;100526.84;4991897;28;20065;-79
2023/05/22 01:28:30;;;;;;;7.13;4.30;;;;;;;21.34;52.34;100521.31;4994033;28;20512;-80
2023/05/22 01:31:27;;;;;;;9.43;4.32;;;;;;;21.33;51.99;100520.50;5007608;28;20037;-79
2023/05/22 01:34:24;;;;;;;6.57;4.22;;;;;;;21.35;51.59;100520.13;4997145;28;20061;-79
2023/05/22 01:37:19;;;;;;;6.90;4.10;;;;;;;21.36;51.82;100518.94;4998423;28;20049;-79
2023/05/22 01:40:12;;;;;;;;;;;;;;;21.29;52.21;100524.44;4998095;28;20058;-78
2023/05/22 01:43:07;;;;;;;15.48;5.20;;;;;;;21.26;50.92;100522.47;5016060;28;19913;-80
2023/05/22 01:46:01;;;;;;;8.65;4.18;;;;;;;21.04;51.92;100527.13;4991581;28;20053;-78
2023/05/22 01:48:56;;;;;;;8.57;4.53;;;;;;;20.92;52.18;100528.28;4983762;28;20429;-79
2023/05/22 01:52:10;;;;;;;8.57;4.57;;;;;;;20.92;51.84;100524.75;5004041;28;20053;-79
2023/05/22 01:55:09;;;;;;;7.88;3.80;;;;;;;20.89;52.85;100518.00;4995307;28;20575;-80
2023/05/22 01:58:11;;;;;;;6.97;3.72;;;;;;;20.88;52.86;100524.69;4998163;28;20405;-78
2023/05/22 02:01:09;;;;;;;8.65;4.18;;;;;;;20.75;52.35;100522.69;4999752;28;20540;-79
2023/05/22 02:04:05;;;;;;;5.70;3.75;;;;;;;20.86;52.05;100520.75;5006204;28;20121;-78
2023/05/22 02:06:59;;;;;;;6.90;3.35;;;;;;;20.78;51.88;100517.16;5016804;28;20065;-79
2023/05/22 02:09:56;;;;;;;13.05;4.70;;;;;;;20.74;52.08;100516.38;5013729;28;20700;-82
2023/05/22 02:12:51;;;;;;;6.60;3.78;;;;;;;20.62;52.39;100510.41;4991838;28;20118;-80
2023/05/22 02:15:48;;;;;;;5.82;4.15;;;;;;;20.65;52.65;100512.38;4995925;28;20057;-79
2023/05/22 02:18:43;;;;;;;6.22;3.78;;;;;;;20.64;52.72;100514.34;4997587;28;20041;-77
2023/05/22 02:21:40;;;;;;;9.15;4.25;;;;;;;20.49;53.42;100513.50;5001874;28;20049;-81
2023/05/22 02:24:35;;;;;;;9.20;5.03;;;;;;;20.47;53.65;100496.50;5017075;28;20167;-79
2023/05/22 02:27:29;;;;;;;6.90;3.63;;;;;;;20.28;54.72;100495.97;5012068;28;20049;-79
2023/05/22 02:30:22;;;;;;;;;;;;;;;20.25;54.65;100489.28;5001885;28;20041;-80
2023/05/22 02:33:17;;;;;;;6.00;4.07;;;;;;;20.18;55.26;100491.97;5015715;28;19914;-79
2023/05/22 02:36:13;;;;;;;9.10;4.10;;;;;;;20.08;55.49;100492.69;5003271;28;21897;-80
2023/05/22 02:39:11;;;;;;;7.40;4.53;;;;;;;19.98;56.56;100485.16;5009351;28;20040;-78
2023/05/22 02:42:02;;;;;;;6.50;3.90;;;;;;;19.97;56.18;100494.59;5000682;28;20577;-79
2023/05/22 02:44:57;;;;;;;9.27;4.32;;;;;;;19.91;56.62;100482.34;5018102;28;20593;-78
2023/05/22 02:47:52;;;;;;;7.90;4.18;;;;;;;19.99;56.77;100486.72;5000402;28;20041;-77
2023/05/22 02:50:46;;;;;;;9.60;4.97;;;;;;;19.98;56.39;100494.22;4992235;28;20041;-78
2023/05/22 02:53:41;;;;;;;15.43;5.53;;;;;;;20.06;56.05;100495.06;5016521;28;20060;-78
2023/05/22 02:56:36;;;;;;;7.07;4.60;;;;;;;20.14;55.95;100488.41;5014080;28;20056;-78
2023/05/22 02:59:30;;;;;;;10.75;4.53;;;;;;;19.97;56.36;100500.91;5001818;28;20049;-77
2023/05/22 03:02:25;;;;;;;7.68;4.20;;;;;;;20.01;56.44;100490.69;5001180;28;20507;-80
2023/05/22 03:05:19;;;;;;;8.05;3.72;;;;;;;20.02;55.81;100492.25;5003957;28;20061;-78
2023/05/22 03:08:14;;;;;;;8.30;4.30;;;;;;;19.77;56.88;100484.97;4998668;28;20045;-79
2023/05/22 03:11:08;;;;;;;8.75;3.80;;;;;;;19.61;56.68;100493.53;5009992;28;20037;-78
2023/05/22 03:14:03;;;;;;;15.43;3.70;;;;;;;19.66;57.06;100490.41;5003637;28;20057;-78
2023/05/22 03:16:58;;;;;;;6.28;3.47;;;;;;;19.57;56.50;100485.22;5001272;28;20038;-78
2023/05/22 03:19:50;;;;;;;5.30;3.58;;;;;;;19.55;57.32;100484.84;5003575;28;20075;-79
2023/05/22 03:22:44;;;;;;;7.47;3.10;;;;;;;19.78;55.83;100497.63;4989516;28;20045;-79
2023/05/22 03:25:39;;;;;;;16.30;5.32;;;;;;;19.78;56.94;100492.88;4999441;28;20053;-78
2023/05/22 03:28:34;;;;;;;6.63;3.80;;;;;;;19.77;56.24;100494.06;4993345;28;20061;-78
2023/05/22 03:31:29;;;;;;;6.35;4.35;;;;;;;19.59;57.44;100501.41;5015355;28;20045;-78
2023/05/22 03:34:31;;;;;;;6.65;4.30;;;;;;;19.64;57.13;100493.59;5004354;28;20516;-79
2023/05/22 03:37:25;;;;;;;6.07;3.88;;;;;;;19.67;57.20;100496.72;5000709;28;20063;-77
2023/05/22 03:40:20;;;;;;;7.13;3.40;;;;;;;19.50;57.77;100501.75;5009552;28;20061;-78
2023/05/22 03:43:15;;;;;;;6.05;3.78;;;;;;;19.48;57.91;100495.00;5003023;28;20048;-78
2023/05/22 03:46:09;;;;;;;13.60;4.68;;;;;;;19.42;58.32;100493.72;5014264;28;20049;-77
2023/05/22 03:49:03;;;;;;;7.22;3.45;;;;;;;19.52;57.92;100499.38;5002716;28;20042;-77
2023/05/22 03:51:58;;;;;;;8.30;3.72;;;;;;;19.57;58.71;100504.53;5003713;28;20129;-76
2023/05/22 03:54:53;;;;;;;8.63;4.05;;;;;;;19.57;58.40;100504.53;4992708;28;20052;-77
2023/05/22 03:57:47;;;;;;;12.18;4.38;;;;;;;19.58;58.74;100499.81;5012880;28;20052;-81
2023/05/22 04:00:40;;;;;;;;;;;;;;;19.63;58.33;100496.72;4999201;28;20046;-77
2023/05/22 04:03:34;;;;;;;7.03;3.30;;;;;;;19.66;57.75;100498.69;4997527;28;19914;-78
2023/05/22 04:06:29;;;;;;;6.97;3.47;;;;;;;19.38;59.34;100513.00;5013418;28;20117;-77
2023/05/22 04:09:23;;;;;;;6.10;3.80;;;;;;;19.50;57.86;100507.25;4999626;28;20040;-77
2023/05/22 04:12:18;;;;;;;8.50;3.28;;;;;;;19.55;58.49;100512.44;5012225;28;20116;-78
2023/05/22 04:15:15;;;;;;;10.38;3.13;;;;;;;19.46;58.73;100514.69;5010224;28;20041;-76
2023/05/22 04:18:09;;;;;;;10.02;3.63;;;;;;;19.46;58.65;100524.91;5013884;28;20489;-78
2023/05/22 04:21:02;;;;;;;6.25;3.30;;;;;;;19.54;58.60;100516.34;5014668;28;20042;-77
2023/05/22 04:23:57;;;;;;;6.93;3.50;;;;;;;19.54;58.54;100519.09;4993101;28;20041;-77
2023/05/22 04:26:49;;;;;;;8.50;3.97;;;;;;;19.62;58.84;100519.94;5006096;28;20049;-78
2023/05/22 04:29:43;;;;;;;6.05;3.97;;;;;;;19.60;58.04;100514.84;5012654;28;20041;-77
2023/05/22 04:32:38;;;;;;;8.15;3.88;;;;;;;19.77;58.19;100523.63;4994677;28;20959;-78
2023/05/22 04:35:30;;;;;;;6.00;4.68;;;;;;;19.59;58.80;100513.25;4999979;28;20044;-79
2023/05/22 04:38:25;;;;;;;6.10;3.90;;;;;;;19.64;58.56;100518.41;5004402;28;20397;-78
2023/05/22 04:41:19;;;;;;;6.40;3.42;;;;;;;19.66;58.40;100518.00;5001128;28;20048;-80
2023/05/22 04:44:14;;;;;;;6.40;3.50;;;;;;;19.64;58.65;100529.44;5010322;28;20523;-77
2023/05/22 04:47:13;;;;;;;9.07;3.45;;;;;;;19.62;58.52;100526.25;5009223;28;20042;-77
2023/05/22 04:50:07;;;;;;;5.85;3.75;;;;;;;19.62;59.00;100528.22;4988812;28;20041;-77
2023/05/22 04:53:02;;;;;;;14.98;3.85;;;;;;;19.63;59.40;100536.13;5002515;28;20412;-78
2023/05/22 04:55:54;;;;;;;;;;;;;;;19.62;57.95;100534.53;5006216;28;20044;-78
2023/05/22 04:58:49;;;;;;;6.90;3.33;;;;;;;19.80;58.50;100539.44;5005279;28;19914;-76
2023/05/22 05:01:46;;;;;;;7.45;4.45;;;;;;;19.85;58.88;100536.31;5015944;28;20045;-77
2023/05/22 05:04:41;;;;;;;7.57;3.35;;;;;;;19.96;58.32;100531.69;5017548;28;20437;-83
2023/05/22 05:07:33;;;;;;;7.68;3.72;;;;;;;19.87;58.12;100539.47;5002159;28;20405;-82
2023/05/22 05:10:25;;;;;;;11.90;3.55;;;;;;;19.91;58.12;100529.28;4996420;28;20120;-82
2023/05/22 05:13:20;;;;;;;4.78;2.95;;;;;;;20.07;57.53;100536.06;4994158;28;20042;-82
2023/05/22 05:16:15;;;;;;;17.10;3.90;;;;;;;20.13;57.63;100533.75;4998045;28;20045;-84
2023/05/22 05:19:07;;;;;;;;;;;;;;;20.18;57.09;100532.59;5014473;28;20045;-81
2023/05/22 05:22:01;;;;;;;13.27;3.50;;;;;;;20.33;57.50;100529.56;4997809;28;19917;-83
2023/05/22 05:24:56;;;;;;;5.80;3.17;;;;;;;20.47;58.08;100535.19;5003665;28;20037;-82
2023/05/22 05:27:48;;;;;;;8.43;3.30;;;;;;;20.54;56.63;100539.16;4986327;28;20052;-82
2023/05/22 05:30:44;;;;;;;11.65;3.75;;;;;;;20.70;56.34;100539.63;4997368;28;20512;-84
2023/05/22 05:34:02;;;;;;;9.95;3.53;;;;;;;20.73;56.01;100536.09;5004407;28;20033;-82
2023/05/22 05:37:20;;;;;;;31.73;4.65;;;;;;;20.78;56.13;100530.97;5013438;28;20393;-83
2023/05/22 05:40:16;;;;;;;6.00;3.45;;;;;;;21.00;58.60;100539.38;5013757;28;20054;-76
2023/05/22 05:43:12;;;;;;;19.23;4.25;;;;;;;21.14;55.70;100540.22;5004778;28;20405;-77
2023/05/22 05:46:05;;;;;;;5.28;3.65;;;;;;;21.17;54.72;100525.63;5003396;28;20048;-77
2023/05/22 05:48:59;;;;;;;7.80;3.00;;;;;;;21.29;54.48;100539.06;5001014;28;20049;-78
2023/05/22 05:51:52;;;;;;;7.85;4.18;;;;;;;21.38;54.55;100541.50;5004877;28;20053;-77
2023/05/22 05:54:47;;;;;;;5.15;3.45;;;;;;;21.41;55.06;100540.69;5006193;28;20074;-75
2023/05/22 05:57:43;;;;;;;10.20;3.75;;;;;;;21.30;55.05;100532.38;5023195;28;20045;-79
2023/05/22 06:00:41;;;;;;;10.43;3.38;;;;;;;21.44;54.69;100539.09;5022131;28;20045;-78
2023/05/22 06:03:35;;;;;;;8.23;3.20;;;;;;;21.41;54.35;100542.66;5001178;28;20045;-82
2023/05/22 06:06:47;;;;;;;4.80;3.05;;;;;;;21.39;53.90;100539.47;5009263;28;20045;-78
2023/05/22 06:09:42;;;;;;;9.18;3.92;;;;;;;21.53;53.92;100545.84;5007944;28;20072;-77
2023/05/22 06:12:39;;;;;;;5.05;3.38;;;;;;;21.62;54.06;100549.03;4993585;28;20040;-78
2023/05/22 06:15:31;;;;;;;13.10;3.55;;;;;;;21.71;53.06;100541.13;4994200;28;20057;-77
2023/05/22 06:18:25;;;;;;;11.23;2.95;;;;;;;21.71;52.55;100556.94;5010641;28;20040;-74
2023/05/22 06:21:24;;;;;;;5.72;3.40;;;;;;;21.85;52.45;100556.94;5012751;28;21463;-76
2023/05/22 06:24:18;;;;;;;7.05;4.10;;;;;;;22.03;52.91;100556.97;4998863;28;20049;-76
2023/05/22 06:27:13;;;;;;;8.40;3.50;;;;;;;22.08;53.01;100554.59;5004859;28;20045;-78
2023/05/22 06:30:05;;;;;;;7.97;3.70;;;;;;;21.99;53.87;100553.41;5012309;28;20045;-78
2023/05/22 06:33:02;;;;;;;4.63;3.15;;;;;;;21.97;54.00;100564.88;5021065;28;20049;-76
2023/05/22 06:35:57;;;;;;;11.52;4.07;;;;;;;22.03;53.40;100562.50;5018776;28;20045;-76
2023/05/22 06:38:50;;;;;;;36.03;6.72;;;;;;;21.99;53.40;100562.50;5016333;28;20060;-76
2023/05/22 06:42:05;;;;;;;10.52;4.15;;;;;;;22.13;52.69;100556.97;5021464;28;20405;-77
2023/05/22 06:45:16;;;;;;;14.35;4.25;;;;;;;22.12;51.98;100554.59;5017055;28;20053;-77
2023/05/22 06:48:21;;;;;;;7.55;2.85;;;;;;;22.17;51.58;100557.75;5018675;28;20049;-77
2023/05/22 06:51:29;;;;;;;4.10;2.95;;;;;;;22.31;51.04;100561.69;5116428;22;20067;-77
2023/05/22 06:54:28;;;;;;;9.23;3.55;;;;;;;22.43;51.06;100558.50;5066587;28;20036;-78
2023/05/22 06:57:22;;;;;;;6.68;3.13;;;;;;;22.43;50.84;100552.94;5061906;28;20043;-79
2023/05/22 07:00:17;;;;;;;8.18;3.25;;;;;;;22.35;50.83;100545.84;5070865;28;20045;-80
2023/05/22 07:03:35;;;;;;;6.70;3.83;;;;;;;22.46;49.69;100552.16;5058319;28;20040;-79
2023/05/22 07:07:02;;;;;;;14.18;4.78;;;;;;;22.70;49.53;100559.63;4999609;28;20046;-78
2023/05/22 07:09:54;;;;;;;3.95;2.90;;;;;;;22.90;48.06;100554.44;5053199;28;20048;-80
2023/05/22 07:12:49;;;;;;;8.80;3.95;;;;;;;22.84;49.35;100565.13;5065294;28;20112;-78
2023/05/22 07:15:44;;;;;;;5.55;3.47;;;;;;;22.78;49.48;100558.41;5051534;28;20040;-78
2023/05/22 07:18:38;;;;;;;7.28;3.38;;;;;;;23.59;45.22;100559.22;5064699;28;20044;-79
2023/05/22 07:21:33;;;;;;;6.35;3.22;;;;;;;23.97;42.13;100562.91;5056436;28;20048;-77
2023/05/22 07:24:28;;;;;;;6.50;3.25;;;;;;;23.95;43.87;100562.50;5064473;28;20041;-78
2023/05/22 07:27:24;;;;;;;7.93;3.22;;;;;;;23.91;42.95;100567.31;5077398;28;20407;-77
2023/05/22 07:30:19;;;;;;;13.10;3.72;;;;;;;24.12;42.96;100559.59;5080036;28;20036;-78
2023/05/22 07:33:13;;;;;;;8.38;3.47;;;;;;;24.50;41.99;100568.75;5077907;28;20041;-80
2023/05/22 07:36:08;;;;;;;4.85;3.13;;;;;;;24.58;39.11;100566.69;5068604;28;20040;-79
2023/05/22 07:38:58;;;;;;;6.43;3.30;;;;;;;24.36;38.70;100568.91;5057665;28;20044;-83
2023/05/22 07:41:56;;;;;;;5.38;3.58;;;;;;;24.94;38.09;100567.09;5066417;28;20040;-82
2023/05/22 07:44:48;;;;;;;8.07;3.67;;;;;;;25.17;37.16;100567.19;5062447;28;20514;-83
2023/05/22 07:47:43;;;;;;;6.18;3.00;;;;;;;25.33;37.12;100570.16;5050309;28;20048;-83
2023/05/22 07:50:38;;;;;;;5.85;3.63;;;;;;;25.06;37.27;100566.53;5061098;28;21141;-83
2023/05/22 07:53:33;;;;;;;5.18;3.35;;;;;;;24.75;40.01;100565.69;5048432;28;20424;-82
2023/05/22 07:56:28;;;;;;;8.50;3.75;;;;;;;24.91;39.61;100567.91;5059754;28;20044;-82
2023/05/22 07:59:22;;;;;;;10.18;4.28;;;;;;;25.09;38.20;100562.94;5059927;28;20043;-82
2023/05/22 08:02:18;;;;;;;10.00;4.38;;;;;;;25.31;39.10;100564.19;5066886;28;20048;-81
2023/05/22 08:05:13;;;;;;;11.52;3.80;;;;;;;25.07;40.07;100568.13;5052627;28;20245;-82
2023/05/22 08:08:08;;;;;;;6.93;3.55;;;;;;;25.29;37.90;100554.69;5047275;28;20040;-82
2023/05/22 08:11:03;;;;;;;6.60;3.60;;;;;;;25.61;38.44;100560.59;5039939;28;20040;-82
2023/05/22 08:13:52;;;;;;;;;;;;;;;25.92;38.09;100559.31;5042363;28;20048;-80
2023/05/22 08:16:47;;;;;;;8.65;4.22;;;;;;;25.34;38.67;100551.44;5038442;28;19913;-81
2023/05/22 08:19:41;;;;;;;6.50;4.03;;;;;;;25.22;38.35;100550.00;5050750;28;20036;-80
2023/05/22 08:22:36;;;;;;;10.75;3.67;;;;;;;25.61;37.91;100549.47;5041248;28;20048;-82
2023/05/22 08:25:28;;;;;;;7.07;3.15;;;;;;;26.12;36.83;100548.22;5050708;28;20037;-82
2023/05/22 08:28:21;;;;;;;12.75;3.83;;;;;;;25.86;37.26;100544.28;5051391;28;20040;-84
2023/05/22 08:31:15;;;;;;;8.38;3.47;;;;;;;25.92;36.97;100552.94;5041688;28;20044;-84
2023/05/22 08:34:10;;;;;;;8.32;3.95;;;;;;;25.70;36.60;100537.81;5048701;28;20527;-85
2023/05/22 08:37:04;;;;;;;8.18;3.90;;;;;;;25.61;37.14;100545.88;5037291;28;20063;-85
2023/05/22 08:39:59;;;;;;;7.82;3.58;;;;;;;25.75;38.68;100551.25;5033066;28;20053;-84
2023/05/22 08:42:53;;;;;;;4.90;3.53;;;;;;;25.82;37.22;100553.91;5033977;28;20044;-85
2023/05/22 08:45:49;;;;;;;7.45;3.92;;;;;;;25.99;35.74;100544.47;5053143;28;20048;-83
2023/05/22 08:48:44;;;;;;;8.20;3.80;;;;;;;26.00;35.36;100546.06;5050475;28;20060;-84
2023/05/22 08:51:41;;;;;;;6.68;3.38;;;;;;;26.09;36.33;100539.91;5032536;28;20045;-83
2023/05/22 08:54:37;;;;;;;7.65;3.60;;;;;;;26.06;38.38;100549.16;5032169;28;20056;-83
2023/05/22 08:57:33;;;;;;;6.95;3.97;;;;;;;25.88;35.66;100546.66;5039203;28;20044;-85
2023/05/22 09:00:28;;;;;;;9.30;3.58;;;;;;;25.89;35.27;100549.03;5041872;28;20116;-84
2023/05/22 09:03:22;;;;;;;16.05;3.90;;;;;;;26.01;34.47;100535.69;5049046;28;20044;-83
2023/05/22 09:06:17;;;;;;;5.70;3.65;;;;;;;26.14;34.87;100537.44;5037335;28;20044;-84
2023/05/22 09:09:12;;;;;;;4.93;3.60;;;;;;;26.19;34.92;100538.94;5037720;28;20515;-83
2023/05/22 09:12:04;;;;;;;6.57;3.75;;;;;;;26.21;35.05;100537.28;5035552;28;20404;-84
2023/05/22 09:14:58;;;;;;;7.28;3.53;;;;;;;26.30;35.67;100542.34;5033422;28;20522;-84
2023/05/22 09:17:57;;;;;;;8.32;4.13;;;;;;;26.18;35.21;100548.50;5037377;28;20060;-85
2023/05/22 09:20:52;;;;;;;13.73;3.97;;;;;;;26.35;35.57;100537.09;5031187;28;20044;-85
2023/05/22 09:23:49;;;;;;;8.40;3.55;;;;;;;26.12;35.46;100534.28;5035349;28;20048;-84
2023/05/22 09:26:47;;;;;;;7.43;4.00;;;;;;;26.57;36.97;100540.22;5045723;28;20403;-84
2023/05/22 09:29:55;;;;;;;9.18;3.75;;;;;;;26.62;35.99;100534.16;5049392;28;20044;-84
2023/05/22 09:32:49;;;;;;;18.98;4.03;;;;;;;26.70;36.16;100534.81;5053518;28;20053;-83
2023/05/22 09:35:44;;;;;;;8.32;4.10;;;;;;;26.66;36.82;100536.88;5038105;28;20048;-86
2023/05/22 09:38:39;;;;;;;8.07;3.80;;;;;;;26.66;36.08;100540.47;5039883;28;20044;-81
2023/05/22 09:41:34;;;;;;;12.65;3.63;;;;;;;26.15;37.07;100530.66;5035917;28;20052;-83
2023/05/22 09:44:30;;;;;;;11.43;4.43;;;;;;;26.52;36.74;100531.56;5043430;28;20029;-83
2023/05/22 09:47:22;;;;;;;13.27;6.22;;;;;;;26.63;36.13;100535.72;5044221;28;20044;-83
2023/05/22 09:50:17;;;;;;;6.22;4.15;;;;;;;26.78;36.95;100530.63;5030905;28;20037;-82
2023/05/22 09:53:11;;;;;;;6.43;3.67;;;;;;;26.85;34.93;100530.50;5048927;28;20049;-83
2023/05/22 09:56:13;;;;;;;7.47;3.83;;;;;;;26.74;34.19;100525.13;5041641;28;20049;-83
2023/05/22 09:59:09;;;;;;;11.63;3.97;;;;;;;26.81;34.60;100524.22;5035479;28;20057;-84
2023/05/22 10:02:01;;;;;;;7.22;3.50;;;;;;;27.06;33.39;100524.50;5041817;28;20045;-83
2023/05/22 10:04:57;;;;;;;9.88;3.92;;;;;;;26.77;34.91;100523.47;5042241;28;20056;-84
2023/05/22 10:07:56;;;;;;;8.75;4.10;;;;;;;26.85;34.29;100521.34;5041754;28;20519;-84
2023/05/22 10:10:53;;;;;;;5.15;3.42;;;;;;;27.04;33.76;100520.53;5039478;28;20064;-83
2023/05/22 10:13:48;;;;;;;3.92;3.22;;;;;;;26.71;35.46;100516.84;5043882;28;20555;-83
2023/05/22 10:16:44;;;;;;;13.02;3.25;;;;;;;26.85;36.32;100516.56;5039155;28;20045;-84
2023/05/22 10:19:36;;;;;;;6.07;3.63;;;;;;;27.12;34.98;100522.75;5035910;28;20573;-83
2023/05/22 10:22:34;;;;;;;6.32;3.55;;;;;;;27.08;35.01;100522.03;5042368;28;20064;-84
2023/05/22 10:25:29;;;;;;;7.13;3.25;;;;;;;26.97;33.96;100515.91;5042171;28;20045;-84
2023/05/22 10:28:24;;;;;;;;;;;;;;;26.89;34.91;100513.69;5041751;28;20058;-83
2023/05/22 10:31:28;;;;;;;5.63;3.65;;;;;;;26.90;33.85;100504.13;5042972;28;19913;-83
2023/05/22 10:34:51;;;;;;;5.40;3.80;;;;;;;27.08;34.22;100508.09;5030226;28;20044;-82
2023/05/22 10:37:55;;;;;;;5.40;3.33;;;;;;;27.16;34.93;100509.50;5044205;28;20040;-83
2023/05/22 10:40:50;;;;;;;12.27;4.03;;;;;;;27.32;34.75;100508.75;5036470;28;20045;-83
2023/05/22 10:43:50;;;;;;;7.28;4.22;;;;;;;27.12;35.62;100510.81;5036293;28;20048;-83
2023/05/22 10:46:51;;;;;;;7.40;3.67;;;;;;;27.07;35.90;100495.34;5035096;28;20052;-84
2023/05/22 10:49:49;;;;;;;6.60;4.18;;;;;;;26.87;36.31;100494.59;5052431;28;20404;-84
2023/05/22 10:52:43;;;;;;;6.93;3.60;;;;;;;27.40;35.65;100498.19;5041596;28;20045;-83
2023/05/22 10:55:50;;;;;;;6.50;3.28;;;;;;;27.35;35.40;100498.72;5041331;28;20176;-84
2023/05/22 10:58:45;;;;;;;6.40;4.22;;;;;;;27.44;34.17;100504.47;5037943;28;20049;-83
2023/05/22 11:01:38;;;;;;;7.57;3.80;;;;;;;27.44;35.75;100499.66;5034815;28;20519;-84
2023/05/22 11:04:38;;;;;;;5.00;3.25;;;;;;;27.69;35.28;100509.47;5054662;28;20522;-83
2023/05/22 11:07:39;;;;;;;;;;;;;;;27.32;34.49;100502.38;5036775;28;20048;-83
2023/05/22 11:10:57;;;;;;;7.40;3.53;;;;;;;27.47;34.51;100507.19;5037756;28;19913;-83
2023/05/22 11:14:02;;;;;;;7.15;3.55;;;;;;;27.48;35.10;100497.56;5036182;28;20049;-83
2023/05/22 11:17:03;;;;;;;6.50;3.92;;;;;;;27.22;35.55;100493.81;5025965;28;20048;-82
2023/05/22 11:20:14;;;;;;;5.47;3.80;;;;;;;27.06;36.26;100485.41;5040982;28;20404;-84
2023/05/22 11:23:08;;;;;;;5.20;3.55;;;;;;;27.37;35.37;100496.28;5037138;28;20040;-84
2023/05/22 11:26:20;;;;;;;11.13;3.88;;;;;;;27.54;34.00;100487.47;5032129;28;20045;-83
2023/05/22 11:29:15;;;;;;;5.78;3.75;;;;;;;27.70;35.41;100485.91;5037817;28;20048;-83
2023/05/22 11:32:14;;;;;;;8.25;3.75;;;;;;;27.61;34.17;100487.31;5042245;28;20036;-83
2023/05/22 11:35:06;;;;;;;5.03;3.60;;;;;;;27.55;34.69;100494.66;5039740;28;20412;-85
2023/05/22 11:38:04;;;;;;;6.53;4.22;;;;;;;27.74;33.27;100487.38;5036028;28;20060;-82
2023/05/22 11:41:01;;;;;;;8.85;4.18;;;;;;;27.40;35.31;100482.22;5026054;28;20424;-83
2023/05/22 11:43:56;;;;;;;11.18;4.40;;;;;;;27.57;34.92;100488.63;5036740;28;20045;-85
2023/05/22 11:46:50;;;;;;;7.47;3.65;;;;;;;27.41;35.68;100478.22;5035703;28;20045;-84
2023/05/22 11:49:43;;;;;;;6.15;3.80;;;;;;;26.97;36.98;100478.84;5041556;28;20072;-84
2023/05/22 11:52:39;;;;;;;8.27;3.97;;;;;;;26.67;38.25;100474.25;5050328;28;20044;-83
2023/05/22 11:55:34;;;;;;;7.90;4.20;;;;;;;26.61;37.26;100476.81;5036343;28;20049;-82
2023/05/22 11:58:27;;;;;;;5.82;4.43;;;;;;;26.70;36.95;100468.63;5039021;28;20040;-84
2023/05/22 12:01:21;;;;;;;6.25;4.10;;;;;;;27.39;37.48;100475.06;5034733;28;20056;-84
2023/05/22 12:04:16;;;;;;;8.05;4.35;;;;;;;27.12;34.84;100466.91;5039950;28;20044;-83
2023/05/22 12:07:11;;;;;;;5.13;3.47;;;;;;;27.36;35.09;100464.75;5036336;28;20061;-84
2023/05/22 12:10:05;;;;;;;10.10;3.97;;;;;;;27.58;36.50;100467.84;5021441;28;20048;-83
2023/05/22 12:13:00;;;;;;;6.38;4.20;;;;;;;27.53;35.55;100460.75;5038438;28;20049;-81
2023/05/22 12:15:50;;;;;;;;;;;;;;;27.71;35.19;100465.91;5036311;28;20048;-83
2023/05/22 12:18:39;;;;;;;6.70;3.70;;;;;;;27.92;34.45;100459.78;5041592;28;19913;-83
2023/05/22 12:21:35;;;;;;;8.55;4.60;;;;;;;27.73;33.36;100463.47;5037521;28;20041;-86
2023/05/22 12:24:38;;;;;;;8.20;4.10;;;;;;;27.50;34.96;100455.28;5032455;28;20040;-84
2023/05/22 12:27:33;;;;;;;13.68;4.47;;;;;;;27.65;33.97;100462.06;5035437;28;20060;-84
2023/05/22 12:30:25;;;;;;;10.38;4.22;;;;;;;27.91;32.93;100458.19;5034474;28;20034;-85
2023/05/22 12:33:20;;;;;;;5.88;4.22;;;;;;;27.46;33.77;100465.72;5032919;28;20056;-85
2023/05/22 12:36:12;;;;;;;;;;;;;;;27.23;35.03;100467.44;5036834;28;20060;-85
2023/05/22 12:39:10;;;;;;;6.22;3.88;;;;;;;27.18;35.75;100465.16;5030924;28;20135;-85
2023/05/22 12:42:12;;;;;;;16.95;4.63;;;;;;;27.41;34.13;100457.88;5036914;28;20045;-87
2023/05/22 12:45:06;;;;;;;8.60;4.00;;;;;;;27.46;33.35;100458.13;5035254;28;20044;-87
2023/05/22 12:48:01;;;;;;;9.90;3.72;;;;;;;27.11;35.99;100456.19;5033869;28;20562;-87
2023/05/22 12:50:53;;;;;;;;;;;;;;;26.35;38.38;100452.63;5034719;28;20459;-86
2023/05/22 12:53:51;;;;;;;7.45;3.78;;;;;;;26.32;39.04;100451.47;5039029;28;20313;-86
2023/05/22 12:56:43;;;;;;;11.65;4.60;;;;;;;25.86;40.80;100451.53;5038204;28;20044;-86
2023/05/22 12:59:35;;;;;;;7.05;4.72;;;;;;;25.62;41.98;100438.84;5037323;28;20049;-87
2023/05/22 13:02:27;;;;;;;7.80;4.75;;;;;;;25.40;43.01;100450.31;5033079;28;20069;-87
2023/05/22 13:05:29;;;;;;;12.68;4.78;;;;;;;25.49;42.54;100442.22;5028266;28;20045;-87
2023/05/22 13:08:24;;;;;;;6.78;4.32;;;;;;;25.42;42.99;100445.09;5038038;28;20515;-87
2023/05/22 13:11:18;;;;;;;9.82;4.55;;;;;;;25.26;43.84;100444.97;5033157;28;20036;-87
2023/05/22 13:14:08;;;;;;;8.57;4.63;;;;;;;25.00;44.11;100437.41;5039703;28;20044;-86
2023/05/22 13:17:01;;;;;;;8.80;5.25;;;;;;;25.38;42.76;100436.03;5036557;28;20039;-86
2023/05/22 13:20:00;;;;;;;6.90;4.85;;;;;;;25.94;42.02;100437.06;5034699;28;20497;-89
2023/05/22 13:22:55;;;;;;;7.80;5.35;;;;;;;26.46;39.80;100436.47;5036092;28;20041;-88
2023/05/22 13:25:49;;;;;;;9.48;4.80;;;;;;;26.33;39.76;100425.16;5036636;28;20060;-88
2023/05/22 13:28:41;;;;;;;16.80;4.80;;;;;;;26.08;40.17;100424.84;5040092;28;20040;-86
2023/05/22 13:31:36;;;;;;;7.00;3.95;;;;;;;26.04;40.80;100421.34;5035994;28;20404;-87
2023/05/22 13:34:33;;;;;;;13.75;5.63;;;;;;;25.92;40.59;100424.75;5042390;28;20049;-87
2023/05/22 13:37:25;;;;;;;9.80;4.60;;;;;;;25.42;42.33;100422.03;5037462;28;20408;-86
2023/05/22 13:40:20;;;;;;;11.95;4.95;;;;;;;25.47;42.51;100422.34;5039389;28;20442;-85
2023/05/22 13:43:14;;;;;;;8.88;4.55;;;;;;;25.84;41.09;100414.97;5036910;28;20038;-82